Main page
METAR-TAF:

METAR-TAF

Airports :

Svalbard Airport. Longyear

Longyearbyen, Norway

latitude: 78-15N, longitude: 015-28E, elevation: 2 m

Current weather observation

The report was made 18 minutes ago, at 09:20 UTC
Wind 13 kt from the Southeast
Temperature 8°C
Humidity 66%
Pressure 1016 hPa
Visibility 10 km or more
Few clouds at a height of 2500 ft
Broken clouds at a height of 2800 ft

METAR: ENSB 240920Z 13013KT 9999 FEW025 BKN028 08/02 Q1016 NOSIG RMK WIND 1400FT 11014KT

Time: 11:38 (09:38 UTC)

Forecast

Forecast valid from 24 at 06 UTC to 25 at 06 UTC
Wind 8 kt from the West/Southwest
Visibility 10 km or more
Few clouds at a height of 1500 ft
Broken clouds at a height of 2500 ft
Becoming
from 24 at 09 UTC to 24 at 11 UTC
Wind 12 kt from the East/Southeast
Temporary
from 24 at 11 UTC to 25 at 06 UTC
Wind 5 kt from variable directions

TAF: ENSB 2406/2506 25008KT 9999 FEW015 BKN025 BECMG 2409/2411 12012KT TEMPO 2411/2506 VRB05KT

Weather observations and forecasts of more than 4000 airports (METAR and TAF reports).

The available stations are represented by yellow and red dots on the map.

Hover mouse over dot to see the name of the station.

Then click to see weather observations and forecasts.

To change the map : click on the green buttons with a black cross to zoom in, on the green button with a dash to zoom out, or on the green arrows for adjacent maps.


METAR-TAF: